Time;durP1;ratioP1;P1;durP2;ratioP2;P2;SDS_P1;SDS_P2;PMS_P1;PMS_P2;Temp;Humidity;BMP_temperature;BMP_pressure;BME280_temperature;BME280_humidity;BME280_pressure;Samples;Min_cycle;Max_cycle;Signal;HPM_P1;HPM_P2
2023/09/12 00:01:11;;;;;;;9.43;8.30;;;16.80;99.90;;;;;;5014432;28;20986;-64
2023/09/12 00:03:39;;;;;;;7.20;6.50;;;16.80;99.90;;;;;;5014475;28;20455;-64
2023/09/12 00:06:06;;;;;;;6.87;6.17;;;16.70;99.90;;;;;;5013959;28;21010;-64
2023/09/12 00:08:33;;;;;;;9.70;8.70;;;16.70;99.90;;;;;;5014504;28;20539;-64
2023/09/12 00:11:02;;;;;;;7.90;6.97;;;16.70;99.90;;;;;;5014322;28;20454;-64
2023/09/12 00:13:29;;;;;;;12.20;8.07;;;16.70;99.90;;;;;;5014174;28;21223;-64
2023/09/12 00:15:56;;;;;;;9.00;7.83;;;16.60;99.90;;;;;;5013932;28;20465;-64
2023/09/12 00:18:23;;;;;;;6.70;6.10;;;16.60;99.90;;;;;;5014225;28;20459;-64
2023/09/12 00:20:51;;;;;;;7.70;7.00;;;16.60;99.90;;;;;;5014116;28;20452;-64
2023/09/12 00:23:19;;;;;;;8.23;7.43;;;16.60;99.90;;;;;;5013950;28;20532;-64
2023/09/12 00:25:46;;;;;;;8.20;6.70;;;16.60;99.90;;;;;;5013413;28;21003;-64
2023/09/12 00:28:13;;;;;;;13.53;8.70;;;16.60;99.90;;;;;;5014004;28;20448;-64
2023/09/12 00:30:39;;;;;;;10.57;7.93;;;16.50;99.90;;;;;;5013942;28;20449;-64
2023/09/12 00:33:06;;;;;;;10.27;7.20;;;16.50;99.90;;;;;;5013817;28;20453;-64
2023/09/12 00:35:33;;;;;;;9.00;7.87;;;16.50;99.90;;;;;;5013349;28;20824;-64
2023/09/12 00:38:01;;;;;;;8.27;7.30;;;16.50;99.90;;;;;;5013965;28;20456;-64
2023/09/12 00:40:28;;;;;;;8.30;7.50;;;16.50;99.90;;;;;;5013858;28;20449;-64
2023/09/12 00:42:55;;;;;;;7.80;6.77;;;16.50;99.90;;;;;;5013741;28;20453;-64
2023/09/12 00:45:22;;;;;;;8.43;7.73;;;16.40;99.90;;;;;;5013322;28;20491;-64
2023/09/12 00:47:50;;;;;;;8.57;7.60;;;16.40;99.90;;;;;;5013200;28;21044;-64
2023/09/12 00:50:17;;;;;;;8.00;7.30;;;16.40;99.90;;;;;;5012742;28;20530;-65
2023/09/12 00:52:45;;;;;;;8.27;7.50;;;16.40;99.90;;;;;;5013442;28;21019;-64
2023/09/12 00:55:13;;;;;;;8.10;7.23;;;16.30;99.90;;;;;;5013293;28;20645;-64
2023/09/12 00:57:40;;;;;;;11.67;7.47;;;16.30;99.90;;;;;;5012852;28;20469;-63
2023/09/12 01:00:12;;;;;;;8.63;7.50;;;16.30;99.90;;;;;;5013311;28;20538;-63
2023/09/12 01:02:39;;;;;;;9.27;7.63;;;16.30;99.90;;;;;;5013232;28;20527;-64
2023/09/12 01:05:07;;;;;;;8.13;6.87;;;16.30;99.90;;;;;;5012908;28;20540;-64
2023/09/12 01:07:35;;;;;;;7.43;6.73;;;16.20;99.90;;;;;;5013195;28;20844;-64
2023/09/12 01:10:02;;;;;;;10.00;9.00;;;16.20;99.90;;;;;;5013339;28;20544;-64
2023/09/12 01:12:31;;;;;;;9.37;8.17;;;16.20;99.90;;;;;;5013262;28;21168;-64
2023/09/12 01:14:57;;;;;;;10.07;7.73;;;16.20;99.90;;;;;;5012707;28;20454;-64
2023/09/12 01:17:25;;;;;;;9.27;8.20;;;16.20;99.90;;;;;;5012898;28;20464;-64
2023/09/12 01:19:52;;;;;;;11.07;7.30;;;16.20;99.90;;;;;;5013046;28;21018;-64
2023/09/12 01:22:46;;;;;;;8.53;7.03;;;16.20;99.90;;;;;;5013068;28;20903;-64
2023/09/12 01:25:59;;;;;;;20.13;8.50;;;16.20;99.90;;;;;;5012556;28;20536;-64
2023/09/12 01:28:31;;;;;;;9.50;7.57;;;16.20;99.90;;;;;;5012760;28;20960;-64
2023/09/12 01:31:02;;;;;;;7.57;6.87;;;16.20;99.90;;;;;;5012577;28;20455;-64
2023/09/12 01:33:29;;;;;;;11.10;8.87;;;16.20;99.90;;;;;;5012523;28;20447;-64
2023/09/12 01:35:56;;;;;;;8.87;7.97;;;16.10;99.90;;;;;;5012060;28;20467;-64
2023/09/12 01:38:23;;;;;;;9.53;7.47;;;16.10;99.90;;;;;;5012554;28;20540;-64
2023/09/12 01:40:52;;;;;;;7.73;6.97;;;16.10;99.90;;;;;;5012710;28;20528;-64
2023/09/12 01:43:21;;;;;;;9.20;8.40;;;16.10;99.90;;;;;;5012328;28;20452;-64
2023/09/12 01:45:53;;;;;;;9.83;7.10;;;16.10;99.90;;;;;;5011929;28;20481;-64
2023/09/12 01:48:22;;;;;;;13.50;8.33;;;16.00;99.90;;;;;;5012472;28;20515;-64
2023/09/12 01:50:50;;;;;;;8.50;7.57;;;16.00;99.90;;;;;;5012269;28;20449;-64
2023/09/12 01:53:17;;;;;;;9.67;7.77;;;16.00;99.90;;;;;;5012237;28;20976;-64
2023/09/12 01:55:45;;;;;;;13.93;7.87;;;16.00;99.90;;;;;;5011875;28;21000;-64
2023/09/12 01:58:13;;;;;;;10.13;8.63;;;16.00;99.90;;;;;;5012385;28;20493;-64
2023/09/12 02:00:41;;;;;;;8.07;6.57;;;16.00;99.90;;;;;;5012062;28;20539;-64
2023/09/12 02:03:09;;;;;;;8.40;6.87;;;15.90;99.90;;;;;;5012056;28;20478;-64
2023/09/12 02:05:37;;;;;;;8.60;7.07;;;15.90;99.90;;;;;;5011994;28;20450;-64
2023/09/12 02:08:04;;;;;;;8.03;6.90;;;15.90;99.90;;;;;;5012039;28;21000;-64
2023/09/12 02:10:31;;;;;;;10.13;7.53;;;15.90;99.90;;;;;;5012139;28;20460;-64
2023/09/12 02:12:58;;;;;;;8.30;7.50;;;15.90;99.90;;;;;;5012102;28;20828;-64
2023/09/12 02:15:25;;;;;;;7.77;7.00;;;15.80;99.90;;;;;;5011627;28;20542;-64
2023/09/12 02:17:53;;;;;;;9.40;8.40;;;15.80;99.90;;;;;;5011937;28;20449;-64
2023/09/12 02:20:21;;;;;;;9.57;7.87;;;15.80;99.90;;;;;;5011986;28;20894;-64
2023/09/12 02:22:48;;;;;;;8.50;7.83;;;15.80;99.90;;;;;;5012078;28;20542;-64
2023/09/12 02:25:15;;;;;;;10.67;7.50;;;15.80;99.90;;;;;;5011385;28;20541;-64
2023/09/12 02:27:41;;;;;;;11.37;8.30;;;15.80;99.90;;;;;;5011602;28;20487;-64
2023/09/12 02:30:09;;;;;;;10.53;8.17;;;15.70;99.90;;;;;;5011708;28;20459;-64
2023/09/12 02:32:36;;;;;;;8.67;7.40;;;15.70;99.90;;;;;;5011868;28;20454;-64
2023/09/12 02:35:03;;;;;;;9.77;8.87;;;15.70;99.90;;;;;;5011569;28;20445;-64
2023/09/12 02:37:31;;;;;;;8.53;7.73;;;15.60;99.90;;;;;;5011537;28;20461;-64
2023/09/12 02:39:58;;;;;;;8.90;7.83;;;15.60;99.90;;;;;;5011610;28;20450;-64
2023/09/12 02:42:25;;;;;;;7.40;6.70;;;15.60;99.90;;;;;;5011537;28;20449;-64
2023/09/12 02:44:53;;;;;;;8.53;7.77;;;15.60;99.90;;;;;;5011095;28;20944;-64
2023/09/12 02:47:20;;;;;;;9.33;7.40;;;15.60;99.90;;;;;;5011042;28;20491;-64
2023/09/12 02:49:46;;;;;;;7.90;7.30;;;15.50;99.90;;;;;;5011498;28;20447;-64
2023/09/12 02:52:13;;;;;;;9.50;7.00;;;15.50;99.90;;;;;;5011362;28;20458;-64
2023/09/12 02:54:41;;;;;;;12.07;8.77;;;15.60;99.90;;;;;;5011051;28;20481;-64
2023/09/12 02:57:09;;;;;;;8.37;7.40;;;15.50;99.90;;;;;;5011194;28;20465;-64
2023/09/12 02:59:35;;;;;;;8.80;7.93;;;15.50;99.90;;;;;;5010939;28;20456;-63
2023/09/12 03:02:02;;;;;;;7.60;6.90;;;15.50;99.90;;;;;;5011202;28;20452;-64
2023/09/12 03:04:30;;;;;;;8.83;7.93;;;15.50;99.90;;;;;;5011049;28;20577;-64
2023/09/12 03:06:57;;;;;;;9.07;8.23;;;15.50;99.90;;;;;;5010942;28;20501;-64
2023/09/12 03:09:24;;;;;;;7.43;6.70;;;15.40;99.90;;;;;;5011154;28;20446;-64
2023/09/12 03:11:52;;;;;;;7.73;6.90;;;15.40;99.90;;;;;;5010550;28;20452;-64
2023/09/12 03:14:19;;;;;;;8.07;7.33;;;15.40;99.90;;;;;;5011043;28;20480;-64
2023/09/12 03:16:46;;;;;;;10.43;7.80;;;15.40;99.90;;;;;;5010877;28;20501;-64
2023/09/12 03:19:13;;;;;;;9.10;8.20;;;15.30;99.90;;;;;;5010065;28;20965;-63
2023/09/12 03:21:39;;;;;;;9.87;7.43;;;15.30;99.90;;;;;;5011227;28;20457;-64
2023/09/12 03:24:07;;;;;;;10.40;8.30;;;15.30;99.90;;;;;;5011003;28;21016;-63
2023/09/12 03:26:35;;;;;;;8.53;7.73;;;15.30;99.90;;;;;;5010667;28;20940;-64
2023/09/12 03:29:04;;;;;;;11.47;8.60;;;15.30;99.90;;;;;;5011036;28;20536;-64
2023/09/12 03:31:31;;;;;;;11.20;7.87;;;15.30;99.90;;;;;;5010924;28;21005;-64
2023/09/12 03:33:58;;;;;;;9.43;8.23;;;15.30;99.90;;;;;;5011343;28;20453;-64
2023/09/12 03:36:25;;;;;;;9.27;8.17;;;15.30;99.90;;;;;;5010940;28;20567;-64
2023/09/12 03:38:51;;;;;;;10.83;8.30;;;15.30;99.90;;;;;;5010890;28;20543;-64
2023/09/12 03:41:18;;;;;;;8.70;8.00;;;15.30;99.90;;;;;;5010920;28;20531;-64
2023/09/12 03:43:45;;;;;;;9.67;7.77;;;15.30;99.90;;;;;;5010951;28;20452;-64
2023/09/12 03:46:14;;;;;;;9.30;8.40;;;15.20;99.90;;;;;;5010301;28;20483;-64
2023/09/12 03:48:41;;;;;;;9.07;7.83;;;15.20;99.90;;;;;;5010999;28;20491;-64
2023/09/12 03:51:07;;;;;;;13.47;8.33;;;15.20;99.90;;;;;;5010731;28;20893;-64
2023/09/12 03:53:34;;;;;;;8.40;7.53;;;15.20;99.90;;;;;;5010809;28;20472;-64
2023/09/12 03:56:01;;;;;;;9.37;7.73;;;15.20;99.90;;;;;;5010465;28;20468;-64
2023/09/12 03:58:28;;;;;;;11.50;8.80;;;15.10;99.90;;;;;;5010738;28;20527;-64
2023/09/12 04:00:55;;;;;;;11.37;8.20;;;15.10;99.90;;;;;;5010635;28;20465;-64
2023/09/12 04:03:23;;;;;;;9.63;8.40;;;15.10;99.90;;;;;;5010868;28;20455;-64
2023/09/12 04:05:51;;;;;;;10.10;9.10;;;15.10;99.90;;;;;;5010282;28;21056;-64
2023/09/12 04:08:18;;;;;;;8.40;7.60;;;15.10;99.90;;;;;;5010628;28;20584;-64
2023/09/12 04:10:45;;;;;;;9.40;8.50;;;15.10;99.90;;;;;;5010606;28;20453;-64
2023/09/12 04:13:11;;;;;;;9.87;8.93;;;15.10;99.90;;;;;;5010481;28;20454;-64
2023/09/12 04:15:38;;;;;;;10.80;8.83;;;15.10;99.90;;;;;;5010421;28;20821;-64
2023/09/12 04:18:06;;;;;;;8.27;7.57;;;15.00;99.90;;;;;;5010653;28;20459;-64
2023/09/12 04:20:34;;;;;;;11.03;8.33;;;15.00;99.90;;;;;;5010474;28;20515;-64
2023/09/12 04:23:02;;;;;;;9.93;8.93;;;15.00;99.90;;;;;;5010512;28;20450;-64
2023/09/12 04:25:29;;;;;;;9.60;8.57;;;15.00;99.90;;;;;;5013099;28;20458;-64
2023/09/12 04:27:56;;;;;;;8.80;7.90;;;15.00;99.90;;;;;;5013797;28;20912;-64
2023/09/12 04:30:23;;;;;;;10.27;8.50;;;15.00;99.90;;;;;;5014102;28;20453;-64
2023/09/12 04:32:49;;;;;;;8.03;7.13;;;15.00;99.90;;;;;;5014005;28;20881;-63
2023/09/12 04:35:17;;;;;;;8.60;7.80;;;15.00;99.90;;;;;;5013625;28;20540;-63
2023/09/12 04:37:45;;;;;;;9.17;8.27;;;15.00;99.90;;;;;;5013485;28;20468;-64
2023/09/12 04:40:12;;;;;;;9.30;7.87;;;14.90;99.90;;;;;;5013688;28;20828;-64
2023/09/12 04:42:39;;;;;;;9.30;8.40;;;14.90;99.90;;;;;;5013888;28;20455;-64
2023/09/12 04:45:07;;;;;;;11.87;9.07;;;14.90;99.90;;;;;;5013568;28;20447;-64
2023/09/12 04:47:34;;;;;;;12.17;9.23;;;14.90;99.90;;;;;;5013245;28;20568;-64
2023/09/12 04:50:01;;;;;;;9.17;8.27;;;14.90;99.90;;;;;;5013587;28;20547;-64
2023/09/12 04:52:28;;;;;;;12.20;8.87;;;14.90;99.90;;;;;;5013501;28;20473;-64
2023/09/12 04:54:56;;;;;;;11.73;9.30;;;14.90;99.90;;;;;;5013110;28;20941;-64
2023/09/12 04:57:23;;;;;;;11.43;8.90;;;14.90;99.90;;;;;;5013506;28;20471;-64
2023/09/12 04:59:51;;;;;;;9.03;8.27;;;14.90;99.90;;;;;;5013434;28;20507;-64
2023/09/12 05:02:18;;;;;;;9.40;8.53;;;14.90;99.90;;;;;;5013184;28;20446;-64
2023/09/12 05:04:45;;;;;;;12.50;10.00;;;14.90;99.90;;;;;;5012970;28;20453;-64
2023/09/12 05:07:11;;;;;;;14.20;7.80;;;14.90;99.90;;;;;;5012978;28;20488;-64
2023/09/12 05:09:38;;;;;;;10.73;7.63;;;14.90;99.90;;;;;;5013093;28;20467;-64
2023/09/12 05:12:07;;;;;;;9.20;8.40;;;14.80;99.90;;;;;;5013308;28;20455;-64
2023/09/12 05:14:34;;;;;;;9.10;8.30;;;14.80;99.90;;;;;;5012923;28;20998;-64
2023/09/12 05:17:01;;;;;;;9.50;7.90;;;14.80;99.90;;;;;;5012835;28;20498;-64
2023/09/12 05:19:29;;;;;;;8.03;7.30;;;14.80;99.90;;;;;;5012928;28;20453;-64
2023/09/12 05:21:55;;;;;;;9.10;8.30;;;14.80;99.90;;;;;;5012810;28;20450;-64
2023/09/12 05:24:22;;;;;;;9.30;7.27;;;14.90;99.90;;;;;;5012800;28;20533;-64
2023/09/12 05:26:49;;;;;;;8.13;7.37;;;14.80;99.90;;;;;;5012548;28;20474;-64
2023/09/12 05:29:17;;;;;;;8.47;7.53;;;14.80;99.90;;;;;;5012925;28;20588;-64
2023/09/12 05:31:44;;;;;;;8.97;8.10;;;14.80;99.90;;;;;;5012797;28;21706;-64
2023/09/12 05:34:11;;;;;;;7.80;7.10;;;14.80;99.90;;;;;;5012440;28;20886;-64
2023/09/12 05:36:37;;;;;;;8.37;7.53;;;14.80;99.90;;;;;;5012001;28;20559;-64
2023/09/12 05:39:05;;;;;;;9.70;8.80;;;14.80;99.90;;;;;;5012850;28;20821;-64
2023/09/12 05:41:31;;;;;;;12.13;8.40;;;14.80;99.90;;;;;;5012709;28;20445;-64
2023/09/12 05:43:58;;;;;;;8.60;7.63;;;14.80;99.90;;;;;;5012784;28;20831;-63
2023/09/12 05:46:26;;;;;;;8.80;8.00;;;14.90;99.90;;;;;;5012177;28;20473;-64
2023/09/12 05:48:53;;;;;;;9.80;7.77;;;14.90;99.90;;;;;;5012516;28;20578;-64
2023/09/12 05:51:20;;;;;;;13.03;8.67;;;14.90;99.90;;;;;;5012342;28;20454;-64
2023/09/12 05:53:47;;;;;;;8.40;7.60;;;14.90;99.90;;;;;;5012542;28;20475;-64
2023/09/12 05:56:14;;;;;;;13.37;7.87;;;14.90;99.90;;;;;;5011881;28;20473;-64
2023/09/12 05:58:42;;;;;;;11.73;8.63;;;15.00;99.90;;;;;;5012440;28;20454;-64
2023/09/12 06:01:09;;;;;;;11.13;9.80;;;15.00;99.90;;;;;;5012283;28;20471;-64
2023/09/12 06:03:37;;;;;;;10.07;8.30;;;15.10;99.90;;;;;;5012161;28;20867;-64
2023/09/12 06:06:04;;;;;;;10.40;9.40;;;15.10;99.90;;;;;;5011826;28;21190;-64
2023/09/12 06:08:31;;;;;;;8.87;7.73;;;15.10;99.90;;;;;;5011961;28;21010;-64
2023/09/12 06:10:58;;;;;;;10.73;8.90;;;15.10;99.90;;;;;;5012236;28;20463;-64
2023/09/12 06:13:25;;;;;;;10.10;9.20;;;15.20;99.90;;;;;;5012032;28;20543;-64
2023/09/12 06:15:52;;;;;;;9.33;8.37;;;15.20;99.90;;;;;;5011708;28;20478;-64
2023/09/12 06:18:19;;;;;;;13.70;9.23;;;15.20;99.90;;;;;;5011831;28;20443;-64
2023/09/12 06:20:47;;;;;;;11.30;8.13;;;15.30;99.90;;;;;;5011882;28;20451;-64
2023/09/12 06:23:14;;;;;;;12.37;9.00;;;15.40;99.90;;;;;;5012057;28;20459;-64
2023/09/12 06:25:41;;;;;;;11.57;10.47;;;15.50;99.90;;;;;;5011479;28;20841;-64
2023/09/12 06:28:10;;;;;;;10.37;9.37;;;15.60;99.90;;;;;;5011682;28;20489;-64
2023/09/12 06:30:37;;;;;;;11.27;10.07;;;15.60;99.90;;;;;;5011649;28;20452;-64
2023/09/12 06:33:04;;;;;;;9.20;8.50;;;15.70;99.90;;;;;;5011625;28;20454;-64
2023/09/12 06:35:33;;;;;;;9.63;8.50;;;15.80;99.90;;;;;;5011465;28;20893;-64
2023/09/12 06:38:01;;;;;;;9.27;8.47;;;15.80;99.90;;;;;;5011526;28;20478;-65
2023/09/12 06:40:28;;;;;;;12.80;9.83;;;15.90;99.90;;;;;;5011687;28;20454;-64
2023/09/12 06:42:55;;;;;;;9.87;8.70;;;16.10;99.90;;;;;;5011535;28;20454;-64
2023/09/12 06:45:21;;;;;;;12.60;9.53;;;16.20;99.90;;;;;;5011167;28;20499;-64
2023/09/12 06:47:48;;;;;;;11.70;9.53;;;16.30;99.90;;;;;;5010771;28;20492;-64
2023/09/12 06:50:15;;;;;;;11.87;9.43;;;16.50;99.90;;;;;;5011431;28;20484;-64
2023/09/12 06:52:42;;;;;;;9.97;9.07;;;16.60;99.90;;;;;;5011600;28;20535;-64
2023/09/12 06:55:10;;;;;;;9.20;8.30;;;16.80;99.90;;;;;;5011155;28;20445;-64
2023/09/12 06:57:37;;;;;;;11.63;10.40;;;17.00;99.90;;;;;;5011246;28;20905;-64
2023/09/12 07:00:06;;;;;;;10.87;9.63;;;17.10;99.90;;;;;;5010404;28;20544;-64
2023/09/12 07:02:33;;;;;;;16.73;9.50;;;17.40;99.90;;;;;;5011205;28;20453;-64
2023/09/12 07:05:00;;;;;;;19.97;10.80;;;17.50;99.90;;;;;;5010936;28;20464;-64
2023/09/12 07:07:27;;;;;;;14.37;10.00;;;17.70;99.90;;;;;;5011167;28;20465;-64
2023/09/12 07:09:53;;;;;;;12.13;10.00;;;17.90;99.90;;;;;;5011277;28;20459;-64
2023/09/12 07:12:22;;;;;;;11.20;9.90;;;18.00;99.90;;;;;;5010984;28;20947;-64
2023/09/12 07:14:50;;;;;;;10.90;9.90;;;18.20;99.90;;;;;;5010807;28;20450;-64
2023/09/12 07:17:17;;;;;;;10.60;9.30;;;18.30;99.90;;;;;;5011127;28;20547;-64
2023/09/12 07:19:44;;;;;;;9.77;8.80;;;18.40;99.90;;;;;;5011202;28;20452;-64
2023/09/12 07:22:11;;;;;;;12.60;10.53;;;18.50;99.90;;;;;;5011229;28;20456;-64
2023/09/12 07:24:38;;;;;;;12.93;9.10;;;18.70;99.90;;;;;;5010799;28;20835;-64
2023/09/12 07:27:05;;;;;;;13.90;10.10;;;18.90;99.90;;;;;;5010862;28;20466;-64
2023/09/12 07:29:33;;;;;;;15.03;10.40;;;19.00;99.90;;;;;;5011091;28;20486;-64
2023/09/12 07:32:00;;;;;;;11.80;10.57;;;19.20;99.90;;;;;;5011075;28;20461;-64
2023/09/12 07:34:27;;;;;;;13.30;11.97;;;19.40;99.90;;;;;;5010884;28;20456;-65
2023/09/12 07:36:54;;;;;;;12.43;11.10;;;19.60;99.90;;;;;;5010624;28;20458;-64
2023/09/12 07:39:21;;;;;;;11.60;10.50;;;19.70;99.90;;;;;;5010827;28;20442;-65
2023/09/12 07:41:48;;;;;;;10.93;9.93;;;19.90;99.90;;;;;;5010956;28;20938;-64
2023/09/12 07:44:15;;;;;;;10.83;9.73;;;20.10;99.90;;;;;;5011012;28;20539;-65
2023/09/12 07:46:43;;;;;;;11.63;9.93;;;20.30;99.90;;;;;;5010465;28;20481;-64
2023/09/12 07:49:10;;;;;;;10.80;8.93;;;20.50;99.90;;;;;;5010917;28;20499;-64
2023/09/12 07:51:37;;;;;;;9.27;8.37;;;20.60;99.90;;;;;;5010824;28;20455;-64
2023/09/12 07:54:04;;;;;;;9.90;8.70;;;20.80;99.90;;;;;;5010706;28;20448;-65
2023/09/12 07:56:31;;;;;;;12.03;8.93;;;20.90;99.90;;;;;;5010652;28;20909;-65
2023/09/12 07:58:58;;;;;;;9.80;8.77;;;21.00;99.90;;;;;;5013417;28;20441;-65
2023/09/12 08:01:27;;;;;;;16.47;9.63;;;21.10;99.90;;;;;;5014627;28;20455;-65
2023/09/12 08:03:55;;;;;;;10.03;9.13;;;21.10;99.90;;;;;;5014667;28;20448;-65
2023/09/12 08:06:23;;;;;;;12.83;8.87;;;21.20;99.90;;;;;;5014080;28;20474;-65
2023/09/12 08:08:50;;;;;;;10.97;9.90;;;21.30;99.90;;;;;;5014315;28;20781;-65
2023/09/12 08:11:17;;;;;;;13.77;10.40;;;21.40;99.90;;;;;;5014335;28;20543;-65
2023/09/12 08:13:44;;;;;;;16.63;10.20;;;21.50;99.90;;;;;;5014434;28;20480;-65
2023/09/12 08:16:11;;;;;;;12.60;10.20;;;21.60;99.90;;;;;;5014004;28;20467;-65
2023/09/12 08:18:38;;;;;;;11.10;10.10;;;21.70;99.90;;;;;;5014137;28;20934;-65
2023/09/12 08:21:06;;;;;;;11.97;10.77;;;21.80;99.90;;;;;;5014029;28;20453;-64
2023/09/12 08:23:33;;;;;;;11.33;9.90;;;22.00;99.90;;;;;;5014263;28;20455;-65
2023/09/12 08:26:00;;;;;;;12.10;9.20;;;22.20;99.90;;;;;;5013687;28;20557;-65
2023/09/12 08:28:27;;;;;;;10.50;9.50;;;22.30;99.90;;;;;;5012204;28;20608;-64
2023/09/12 08:30:53;;;;;;;10.93;9.90;;;22.50;99.90;;;;;;5013231;28;20452;-65
2023/09/12 08:33:20;;;;;;;13.53;10.30;;;22.70;99.90;;;;;;5013535;28;20446;-65
2023/09/12 08:35:47;;;;;;;19.10;9.80;;;22.70;99.90;;;;;;5012895;28;21006;-65
2023/09/12 08:38:15;;;;;;;15.67;10.33;;;22.80;99.90;;;;;;5013715;28;20449;-65
2023/09/12 08:40:48;;;;;;;13.97;9.73;;;22.90;99.90;;;;;;5011840;28;20442;-65
2023/09/12 08:43:15;;;;;;;14.67;10.23;;;23.10;99.90;;;;;;5012536;28;20541;-65
2023/09/12 08:45:44;;;;;;;11.20;9.83;;;23.10;99.90;;;;;;5012568;28;20457;-65
2023/09/12 08:48:12;;;;;;;13.33;9.57;;;23.10;99.90;;;;;;5012914;28;20453;-65
2023/09/12 08:50:40;;;;;;;9.67;8.67;;;23.10;99.90;;;;;;5013092;28;20883;-65
2023/09/12 08:53:07;;;;;;;18.77;14.63;;;23.00;99.90;;;;;;5012910;28;20533;-64
2023/09/12 08:55:36;;;;;;;12.90;11.60;;;23.00;99.90;;;;;;5012561;28;20434;-65
2023/09/12 08:58:05;;;;;;;13.20;8.80;;;23.00;99.90;;;;;;5013094;28;20450;-65
2023/09/12 09:00:32;;;;;;;10.47;9.57;;;23.00;99.90;;;;;;5012747;28;20465;-65
2023/09/12 09:02:59;;;;;;;10.73;9.13;;;23.00;99.90;;;;;;5012844;28;20999;-65
2023/09/12 09:05:28;;;;;;;10.70;9.60;;;23.10;99.90;;;;;;5012371;28;20536;-64
2023/09/12 09:07:56;;;;;;;12.80;11.60;;;23.10;99.90;;;;;;5012896;28;20980;-65
2023/09/12 09:10:23;;;;;;;12.80;10.33;;;23.20;99.90;;;;;;5011808;28;20576;-65
2023/09/12 09:12:51;;;;;;;11.87;10.67;;;23.40;99.90;;;;;;5012731;28;20525;-65
2023/09/12 09:15:23;;;;;;;12.80;11.30;;;23.60;99.90;;;;;;5012112;28;20815;-64
2023/09/12 09:17:50;;;;;;;15.33;11.60;;;23.70;99.90;;;;;;5012351;28;20477;-65
2023/09/12 09:20:29;;;;;;;14.30;11.70;;;23.80;99.90;;;;;;5012240;28;20444;-65
2023/09/12 09:23:00;;;;;;;11.53;10.40;;;23.90;99.90;;;;;;5012474;28;20438;-65
2023/09/12 09:25:27;;;;;;;12.87;10.20;;;24.00;99.90;;;;;;5011910;28;20474;-65
2023/09/12 09:27:55;;;;;;;10.70;9.43;;;24.20;99.90;;;;;;5012126;28;20474;-65
2023/09/12 09:30:54;;;;;;;13.53;10.13;;;24.30;99.90;;;;;;5011929;28;20564;-65
2023/09/12 09:33:22;;;;;;;10.40;9.10;;;24.40;99.90;;;;;;4951446;29;20500;-65
2023/09/12 09:35:51;;;;;;;10.53;9.60;;;24.50;99.90;;;;;;4998518;28;20467;-65
2023/09/12 09:38:21;;;;;;;10.93;9.80;;;24.60;99.90;;;;;;5012032;28;20447;-65
2023/09/12 09:40:48;;;;;;;10.97;9.97;;;24.70;99.90;;;;;;5011971;28;20531;-65
2023/09/12 09:43:21;;;;;;;10.67;9.37;;;24.80;99.90;;;;;;5012059;28;20466;-65
2023/09/12 09:45:48;;;;;;;11.30;10.20;;;24.90;99.90;;;;;;5011527;28;20542;-65
2023/09/12 09:48:19;;;;;;;17.80;10.53;;;25.00;99.90;;;;;;5011892;28;20880;-65
2023/09/12 09:50:46;;;;;;;10.67;9.57;;;25.10;99.90;;;;;;5012191;28;20975;-65
2023/09/12 09:53:13;;;;;;;13.10;9.90;;;25.20;99.90;;;;;;5012009;28;20822;-65
2023/09/12 09:55:40;;;;;;;15.60;14.20;;;25.30;99.90;;;;;;5011456;28;20451;-65
2023/09/12 09:58:07;;;;;;;10.57;9.47;;;25.40;99.90;;;;;;5011702;28;20974;-65
2023/09/12 10:00:38;;;;;;;10.70;9.60;;;25.50;99.90;;;;;;5011693;28;20441;-65
2023/09/12 10:03:06;;;;;;;11.70;10.50;;;25.60;99.90;;;;;;5011563;28;20459;-65
2023/09/12 10:05:33;;;;;;;11.00;9.93;;;25.70;99.90;;;;;;5010782;28;20452;-64
2023/09/12 10:08:05;;;;;;;10.30;9.40;;;25.80;99.90;;;;;;5011055;28;21024;-65
2023/09/12 10:10:34;;;;;;;21.20;11.20;;;26.00;99.90;;;;;;5010732;28;20537;-65
2023/09/12 10:13:04;;;;;;;15.60;8.93;;;26.10;99.90;;;;;;5011251;28;20875;-65
2023/09/12 10:15:32;;;;;;;11.57;10.37;;;26.20;99.90;;;;;;4995103;28;20448;-65
2023/09/12 10:18:03;;;;;;;10.03;9.13;;;26.30;99.90;;;;;;5011133;28;20529;-65
2023/09/12 10:20:38;;;;;;;10.97;9.87;;;26.40;99.00;;;;;;5011467;28;20890;-65
2023/09/12 10:23:11;;;;;;;10.53;9.33;;;26.50;98.20;;;;;;5009934;28;20448;-65
2023/09/12 10:25:39;;;;;;;15.63;9.93;;;26.60;98.40;;;;;;4995665;28;20457;-65
2023/09/12 10:28:06;;;;;;;11.57;10.27;;;26.80;98.20;;;;;;5010073;28;20456;-65
2023/09/12 10:30:35;;;;;;;11.63;10.10;;;26.80;98.10;;;;;;5009492;28;20493;-65
2023/09/12 10:33:04;;;;;;;13.33;11.40;;;26.90;98.80;;;;;;5011293;28;20819;-65
2023/09/12 10:35:32;;;;;;;10.10;9.10;;;27.00;98.60;;;;;;4993799;28;20453;-65
2023/09/12 10:38:01;;;;;;;10.17;9.10;;;27.10;98.10;;;;;;5010963;28;20453;-65
2023/09/12 10:40:29;;;;;;;13.70;9.50;;;27.10;98.30;;;;;;5011184;28;20447;-65
2023/09/12 10:42:57;;;;;;;11.10;9.10;;;27.20;96.70;;;;;;5010736;28;20538;-65
2023/09/12 10:45:24;;;;;;;9.80;8.60;;;27.30;97.50;;;;;;5010688;28;20458;-65
2023/09/12 10:47:51;;;;;;;9.80;9.00;;;27.30;97.60;;;;;;5010958;28;20464;-65
2023/09/12 10:50:21;;;;;;;13.80;9.37;;;27.40;96.60;;;;;;5010812;28;20482;-65
2023/09/12 10:52:49;;;;;;;13.97;9.73;;;27.50;96.70;;;;;;5010667;28;20467;-65
2023/09/12 10:55:18;;;;;;;9.37;8.47;;;27.60;96.50;;;;;;5010282;28;20472;-65
2023/09/12 10:58:03;;;;;;;11.90;9.23;;;27.60;95.80;;;;;;5010919;28;20851;-65
2023/09/12 11:00:32;;;;;;;14.07;9.13;;;27.70;96.20;;;;;;5010886;28;20465;-66
2023/09/12 11:02:59;;;;;;;12.37;9.33;;;27.80;95.60;;;;;;5010718;28;20919;-65
2023/09/12 11:05:53;;;;;;;10.37;9.47;;;27.90;96.40;;;;;;5010389;28;20471;-65
2023/09/12 11:08:20;;;;;;;9.90;8.90;;;28.00;96.00;;;;;;5010704;28;20821;-66
2023/09/12 11:11:20;;;;;;;8.97;8.10;;;28.10;95.70;;;;;;5010287;28;21048;-66
2023/09/12 11:13:48;;;;;;;9.93;9.03;;;28.20;95.80;;;;;;4996754;28;20453;-65
2023/09/12 11:16:17;;;;;;;13.50;9.37;;;28.30;93.10;;;;;;5010072;28;20469;-65
2023/09/12 11:19:19;;;;;;;9.57;8.43;;;28.40;94.00;;;;;;5010774;28;21412;-65
2023/09/12 11:21:49;;;;;;;11.50;8.37;;;28.50;93.60;;;;;;4996393;28;20449;-65
2023/09/12 11:24:17;;;;;;;9.60;8.50;;;28.60;91.80;;;;;;5010333;28;21211;-65
2023/09/12 11:26:54;;;;;;;10.83;8.73;;;28.70;93.10;;;;;;5009934;28;21039;-65
2023/09/12 11:29:22;;;;;;;9.00;8.03;;;28.80;93.10;;;;;;5010226;28;21113;-65
2023/09/12 11:31:57;;;;;;;9.90;8.50;;;28.90;92.60;;;;;;5010381;28;20820;-65
2023/09/12 11:34:25;;;;;;;12.30;8.93;;;29.10;92.70;;;;;;5013936;28;20924;-65
2023/09/12 11:36:56;;;;;;;13.20;9.20;;;29.20;92.70;;;;;;5013759;28;20463;-65
2023/09/12 11:39:24;;;;;;;9.13;8.30;;;29.30;91.20;;;;;;5014553;28;20450;-65
2023/09/12 11:41:51;;;;;;;11.27;8.50;;;29.40;90.90;;;;;;5014407;28;20445;-66
2023/09/12 11:44:20;;;;;;;18.43;10.60;;;29.50;91.00;;;;;;5014359;28;20536;-66
2023/09/12 11:46:49;;;;;;;10.10;9.10;;;29.60;91.60;;;;;;5013750;28;20508;-65
2023/09/12 11:49:17;;;;;;;10.70;9.67;;;29.70;90.20;;;;;;5013908;28;20482;-65
2023/09/12 11:51:48;;;;;;;10.53;9.53;;;29.90;90.20;;;;;;5014076;28;20472;-66
2023/09/12 11:54:18;;;;;;;11.93;9.20;;;30.00;89.30;;;;;;5014178;28;20447;-65
2023/09/12 11:56:47;;;;;;;14.57;10.60;;;30.20;89.50;;;;;;5013853;28;20554;-66
2023/09/12 11:59:14;;;;;;;10.10;9.20;;;30.40;90.20;;;;;;5013893;28;20445;-65
2023/09/12 12:01:41;;;;;;;10.43;8.63;;;30.50;89.60;;;;;;5014004;28;20530;-65
2023/09/12 12:04:08;;;;;;;10.90;10.00;;;30.60;87.80;;;;;;5013764;28;20802;-66
2023/09/12 12:06:35;;;;;;;10.03;8.87;;;30.60;86.80;;;;;;5013666;28;20553;-65
2023/09/12 12:09:04;;;;;;;12.57;9.73;;;30.70;84.30;;;;;;5013788;28;20451;-65
2023/09/12 12:11:33;;;;;;;9.90;9.10;;;30.80;85.10;;;;;;4997667;28;20458;-65
2023/09/12 12:14:11;;;;;;;10.20;9.20;;;30.90;84.50;;;;;;5013512;28;21219;-66
2023/09/12 12:16:38;;;;;;;10.13;9.07;;;30.90;84.80;;;;;;5013150;28;20924;-65
2023/09/12 12:19:04;;;;;;;10.70;9.60;;;31.00;82.30;;;;;;5013628;28;20474;-65
2023/09/12 12:21:32;;;;;;;10.33;9.53;;;31.10;83.90;;;;;;4997658;28;20969;-66
2023/09/12 12:24:00;;;;;;;11.40;10.37;;;31.20;84.80;;;;;;5013403;28;20454;-65
2023/09/12 12:26:27;;;;;;;9.80;8.90;;;31.30;84.90;;;;;;5012886;28;20495;-65
2023/09/12 12:28:55;;;;;;;14.00;9.80;;;31.40;85.80;;;;;;5013044;28;20545;-65
2023/09/12 12:31:24;;;;;;;11.87;9.57;;;31.50;85.30;;;;;;5013021;28;20489;-65
2023/09/12 12:33:52;;;;;;;10.47;9.43;;;31.60;87.00;;;;;;5013201;28;20448;-65
2023/09/12 12:36:19;;;;;;;10.73;9.73;;;31.70;86.00;;;;;;5012896;28;20556;-66
2023/09/12 12:38:48;;;;;;;13.00;9.87;;;31.80;82.80;;;;;;5013107;28;20988;-66
2023/09/12 12:41:16;;;;;;;9.80;8.10;;;31.80;78.70;;;;;;5012972;28;20540;-65
2023/09/12 12:43:43;;;;;;;11.73;9.87;;;32.00;80.10;;;;;;5012496;28;20454;-66
2023/09/12 12:46:13;;;;;;;9.37;8.60;;;32.10;79.10;;;;;;5012073;28;20476;-65